sensor_id;sensor_type;location;lat;lon;timestamp;P1;durP1;ratioP1;P2;durP2;ratioP2
55368;SDS011;41247;49.736;8.752;2022-09-01T00:01:00;3.53;;;3.05;;
55368;SDS011;41247;49.736;8.752;2022-09-01T00:04:42;4.40;;;3.22;;
55368;SDS011;41247;49.736;8.752;2022-09-01T00:08:24;4.38;;;3.15;;
55368;SDS011;41247;49.736;8.752;2022-09-01T00:12:05;4.82;;;3.55;;
55368;SDS011;41247;49.736;8.752;2022-09-01T00:15:49;4.25;;;3.63;;
55368;SDS011;41247;49.736;8.752;2022-09-01T00:19:30;5.05;;;3.45;;
55368;SDS011;41247;49.736;8.752;2022-09-01T00:23:11;5.15;;;3.78;;
55368;SDS011;41247;49.736;8.752;2022-09-01T00:26:52;7.93;;;3.47;;
55368;SDS011;41247;49.736;8.752;2022-09-01T00:30:34;5.28;;;3.38;;
55368;SDS011;41247;49.736;8.752;2022-09-01T00:34:15;5.63;;;3.35;;
55368;SDS011;41247;49.736;8.752;2022-09-01T00:37:56;5.13;;;3.33;;
55368;SDS011;41247;49.736;8.752;2022-09-01T00:41:38;6.65;;;3.72;;
55368;SDS011;41247;49.736;8.752;2022-09-01T00:45:20;7.05;;;3.60;;
55368;SDS011;41247;49.736;8.752;2022-09-01T00:49:35;6.95;;;3.40;;
55368;SDS011;41247;49.736;8.752;2022-09-01T00:53:09;8.50;;;3.72;;
55368;SDS011;41247;49.736;8.752;2022-09-01T00:56:50;5.75;;;3.05;;
55368;SDS011;41247;49.736;8.752;2022-09-01T01:00:34;5.53;;;3.00;;
55368;SDS011;41247;49.736;8.752;2022-09-01T01:04:18;7.10;;;3.45;;
55368;SDS011;41247;49.736;8.752;2022-09-01T01:08:08;6.30;;;2.85;;
55368;SDS011;41247;49.736;8.752;2022-09-01T01:11:49;5.68;;;3.67;;
55368;SDS011;41247;49.736;8.752;2022-09-01T01:15:30;4.03;;;3.15;;
55368;SDS011;41247;49.736;8.752;2022-09-01T01:19:12;5.68;;;3.38;;
55368;SDS011;41247;49.736;8.752;2022-09-01T01:28:07;5.55;;;3.67;;
55368;SDS011;41247;49.736;8.752;2022-09-01T01:31:51;8.05;;;3.80;;
55368;SDS011;41247;49.736;8.752;2022-09-01T01:35:31;4.07;;;3.45;;
55368;SDS011;41247;49.736;8.752;2022-09-01T01:39:14;5.78;;;3.50;;
55368;SDS011;41247;49.736;8.752;2022-09-01T01:42:58;5.53;;;3.70;;
55368;SDS011;41247;49.736;8.752;2022-09-01T01:46:40;6.47;;;3.70;;
55368;SDS011;41247;49.736;8.752;2022-09-01T01:50:26;4.40;;;3.70;;
55368;SDS011;41247;49.736;8.752;2022-09-01T01:54:09;5.63;;;3.72;;
55368;SDS011;41247;49.736;8.752;2022-09-01T01:57:50;6.97;;;3.60;;
55368;SDS011;41247;49.736;8.752;2022-09-01T02:01:30;5.63;;;3.90;;
55368;SDS011;41247;49.736;8.752;2022-09-01T02:05:11;4.90;;;3.08;;
55368;SDS011;41247;49.736;8.752;2022-09-01T02:08:52;4.28;;;3.35;;
55368;SDS011;41247;49.736;8.752;2022-09-01T02:12:35;5.63;;;3.42;;
55368;SDS011;41247;49.736;8.752;2022-09-01T02:16:16;5.97;;;3.50;;
55368;SDS011;41247;49.736;8.752;2022-09-01T02:19:56;3.97;;;3.58;;
55368;SDS011;41247;49.736;8.752;2022-09-01T02:23:37;6.55;;;3.90;;
55368;SDS011;41247;49.736;8.752;2022-09-01T02:27:19;5.93;;;3.83;;
55368;SDS011;41247;49.736;8.752;2022-09-01T02:31:00;5.97;;;3.95;;
55368;SDS011;41247;49.736;8.752;2022-09-01T02:34:41;5.25;;;3.55;;
55368;SDS011;41247;49.736;8.752;2022-09-01T02:38:22;4.70;;;3.63;;
55368;SDS011;41247;49.736;8.752;2022-09-01T02:42:04;5.00;;;3.67;;
55368;SDS011;41247;49.736;8.752;2022-09-01T02:45:46;8.48;;;3.88;;
55368;SDS011;41247;49.736;8.752;2022-09-01T02:49:31;3.97;;;3.58;;
55368;SDS011;41247;49.736;8.752;2022-09-01T02:53:11;4.63;;;3.50;;
55368;SDS011;41247;49.736;8.752;2022-09-01T02:56:52;5.32;;;3.60;;
55368;SDS011;41247;49.736;8.752;2022-09-01T03:00:33;6.68;;;4.07;;
55368;SDS011;41247;49.736;8.752;2022-09-01T03:04:14;7.82;;;4.25;;
55368;SDS011;41247;49.736;8.752;2022-09-01T03:07:56;4.85;;;3.45;;
55368;SDS011;41247;49.736;8.752;2022-09-01T03:11:44;3.78;;;3.47;;
55368;SDS011;41247;49.736;8.752;2022-09-01T03:15:28;4.35;;;3.88;;
55368;SDS011;41247;49.736;8.752;2022-09-01T03:19:09;8.63;;;4.50;;
55368;SDS011;41247;49.736;8.752;2022-09-01T03:22:50;5.35;;;4.03;;
55368;SDS011;41247;49.736;8.752;2022-09-01T03:26:30;6.05;;;4.25;;
55368;SDS011;41247;49.736;8.752;2022-09-01T03:30:11;5.70;;;4.55;;
55368;SDS011;41247;49.736;8.752;2022-09-01T03:33:53;7.53;;;4.20;;
55368;SDS011;41247;49.736;8.752;2022-09-01T03:37:34;5.47;;;4.60;;
55368;SDS011;41247;49.736;8.752;2022-09-01T03:41:16;5.32;;;4.53;;
55368;SDS011;41247;49.736;8.752;2022-09-01T03:45:00;6.53;;;4.45;;
55368;SDS011;41247;49.736;8.752;2022-09-01T03:48:43;5.20;;;4.40;;
55368;SDS011;41247;49.736;8.752;2022-09-01T03:52:24;7.25;;;5.05;;
55368;SDS011;41247;49.736;8.752;2022-09-01T03:56:05;5.90;;;4.70;;
55368;SDS011;41247;49.736;8.752;2022-09-01T03:59:46;8.55;;;4.95;;
55368;SDS011;41247;49.736;8.752;2022-09-01T04:03:31;6.00;;;5.00;;
55368;SDS011;41247;49.736;8.752;2022-09-01T04:07:12;7.07;;;5.15;;
55368;SDS011;41247;49.736;8.752;2022-09-01T04:10:53;5.38;;;4.85;;
55368;SDS011;41247;49.736;8.752;2022-09-01T04:14:35;6.80;;;4.70;;
55368;SDS011;41247;49.736;8.752;2022-09-01T04:18:16;7.60;;;5.10;;
55368;SDS011;41247;49.736;8.752;2022-09-01T04:21:58;6.47;;;4.90;;
55368;SDS011;41247;49.736;8.752;2022-09-01T04:25:40;9.63;;;5.50;;
55368;SDS011;41247;49.736;8.752;2022-09-01T04:29:21;6.05;;;5.10;;
55368;SDS011;41247;49.736;8.752;2022-09-01T04:33:02;7.50;;;5.30;;
55368;SDS011;41247;49.736;8.752;2022-09-01T04:36:43;5.40;;;4.75;;
55368;SDS011;41247;49.736;8.752;2022-09-01T04:40:24;8.38;;;4.95;;
55368;SDS011;41247;49.736;8.752;2022-09-01T04:44:08;5.63;;;5.03;;
55368;SDS011;41247;49.736;8.752;2022-09-01T04:51:33;4.82;;;4.32;;
55368;SDS011;41247;49.736;8.752;2022-09-01T04:55:19;6.75;;;4.88;;
55368;SDS011;41247;49.736;8.752;2022-09-01T05:03:50;5.50;;;4.82;;
55368;SDS011;41247;49.736;8.752;2022-09-01T05:07:32;5.85;;;5.22;;
55368;SDS011;41247;49.736;8.752;2022-09-01T05:11:13;8.13;;;5.22;;
55368;SDS011;41247;49.736;8.752;2022-09-01T05:28:46;6.97;;;5.00;;
55368;SDS011;41247;49.736;8.752;2022-09-01T05:32:29;8.93;;;4.70;;
55368;SDS011;41247;49.736;8.752;2022-09-01T05:41:35;5.53;;;4.70;;
55368;SDS011;41247;49.736;8.752;2022-09-01T05:45:18;9.95;;;5.20;;
55368;SDS011;41247;49.736;8.752;2022-09-01T05:49:56;8.50;;;5.03;;
55368;SDS011;41247;49.736;8.752;2022-09-01T05:54:00;9.05;;;4.85;;
55368;SDS011;41247;49.736;8.752;2022-09-01T05:57:47;8.52;;;4.82;;
55368;SDS011;41247;49.736;8.752;2022-09-01T06:02:03;5.60;;;4.60;;
55368;SDS011;41247;49.736;8.752;2022-09-01T06:10:23;6.28;;;4.63;;
55368;SDS011;41247;49.736;8.752;2022-09-01T06:14:15;6.40;;;4.72;;
55368;SDS011;41247;49.736;8.752;2022-09-01T06:17:57;5.82;;;4.30;;
55368;SDS011;41247;49.736;8.752;2022-09-01T06:26:16;4.82;;;4.35;;
55368;SDS011;41247;49.736;8.752;2022-09-01T06:31:06;5.97;;;4.13;;
55368;SDS011;41247;49.736;8.752;2022-09-01T06:34:47;6.25;;;4.15;;
55368;SDS011;41247;49.736;8.752;2022-09-01T06:38:36;7.50;;;4.22;;
55368;SDS011;41247;49.736;8.752;2022-09-01T06:42:20;4.72;;;3.72;;
55368;SDS011;41247;49.736;8.752;2022-09-01T06:50:21;8.63;;;3.67;;
55368;SDS011;41247;49.736;8.752;2022-09-01T06:59:33;4.23;;;3.50;;
55368;SDS011;41247;49.736;8.752;2022-09-01T07:03:14;4.97;;;3.13;;
55368;SDS011;41247;49.736;8.752;2022-09-01T07:06:55;4.30;;;3.50;;
55368;SDS011;41247;49.736;8.752;2022-09-01T07:10:40;5.90;;;3.63;;
55368;SDS011;41247;49.736;8.752;2022-09-01T07:14:23;5.05;;;3.60;;
55368;SDS011;41247;49.736;8.752;2022-09-01T07:18:04;8.65;;;3.85;;
55368;SDS011;41247;49.736;8.752;2022-09-01T07:21:44;5.18;;;3.60;;
55368;SDS011;41247;49.736;8.752;2022-09-01T07:25:25;5.00;;;3.25;;
55368;SDS011;41247;49.736;8.752;2022-09-01T07:29:06;7.80;;;3.78;;
55368;SDS011;41247;49.736;8.752;2022-09-01T07:32:47;5.57;;;3.38;;
55368;SDS011;41247;49.736;8.752;2022-09-01T07:36:28;6.70;;;3.53;;
55368;SDS011;41247;49.736;8.752;2022-09-01T07:40:10;4.53;;;3.30;;
55368;SDS011;41247;49.736;8.752;2022-09-01T07:43:54;7.13;;;3.35;;
55368;SDS011;41247;49.736;8.752;2022-09-01T07:47:35;5.25;;;3.40;;
55368;SDS011;41247;49.736;8.752;2022-09-01T07:51:17;7.38;;;3.47;;
55368;SDS011;41247;49.736;8.752;2022-09-01T07:55:01;5.70;;;3.13;;
55368;SDS011;41247;49.736;8.752;2022-09-01T07:58:42;3.47;;;2.90;;
55368;SDS011;41247;49.736;8.752;2022-09-01T08:02:24;5.32;;;3.15;;
55368;SDS011;41247;49.736;8.752;2022-09-01T08:06:09;5.93;;;3.10;;
55368;SDS011;41247;49.736;8.752;2022-09-01T08:09:52;4.63;;;2.85;;
55368;SDS011;41247;49.736;8.752;2022-09-01T08:13:33;7.43;;;3.00;;
55368;SDS011;41247;49.736;8.752;2022-09-01T08:17:16;4.28;;;2.83;;
55368;SDS011;41247;49.736;8.752;2022-09-01T08:20:56;4.53;;;2.75;;
55368;SDS011;41247;49.736;8.752;2022-09-01T08:24:37;3.03;;;2.55;;
55368;SDS011;41247;49.736;8.752;2022-09-01T08:28:18;7.30;;;3.10;;
55368;SDS011;41247;49.736;8.752;2022-09-01T08:31:59;4.35;;;2.90;;
55368;SDS011;41247;49.736;8.752;2022-09-01T08:35:41;4.53;;;2.60;;
55368;SDS011;41247;49.736;8.752;2022-09-01T08:39:25;3.80;;;3.47;;
55368;SDS011;41247;49.736;8.752;2022-09-01T08:47:15;3.20;;;2.63;;
55368;SDS011;41247;49.736;8.752;2022-09-01T08:59:04;5.07;;;2.70;;
55368;SDS011;41247;49.736;8.752;2022-09-01T09:06:43;3.58;;;2.75;;
55368;SDS011;41247;49.736;8.752;2022-09-01T09:18:50;4.72;;;3.22;;
55368;SDS011;41247;49.736;8.752;2022-09-01T09:22:36;6.68;;;2.88;;
55368;SDS011;41247;49.736;8.752;2022-09-01T09:26:17;3.85;;;2.70;;
55368;SDS011;41247;49.736;8.752;2022-09-01T09:33:44;8.65;;;2.15;;
55368;SDS011;41247;49.736;8.752;2022-09-01T09:37:26;5.28;;;2.67;;
55368;SDS011;41247;49.736;8.752;2022-09-01T09:41:17;6.45;;;2.58;;
55368;SDS011;41247;49.736;8.752;2022-09-01T09:45:00;5.55;;;2.67;;
55368;SDS011;41247;49.736;8.752;2022-09-01T09:48:41;4.07;;;2.30;;
55368;SDS011;41247;49.736;8.752;2022-09-01T09:52:22;10.60;;;3.00;;
55368;SDS011;41247;49.736;8.752;2022-09-01T09:56:15;4.78;;;2.38;;
55368;SDS011;41247;49.736;8.752;2022-09-01T10:00:05;4.43;;;2.25;;
55368;SDS011;41247;49.736;8.752;2022-09-01T10:04:08;6.63;;;2.50;;
55368;SDS011;41247;49.736;8.752;2022-09-01T10:07:49;9.43;;;2.58;;
55368;SDS011;41247;49.736;8.752;2022-09-01T10:15:27;4.43;;;2.20;;
55368;SDS011;41247;49.736;8.752;2022-09-01T10:19:12;5.72;;;2.60;;
55368;SDS011;41247;49.736;8.752;2022-09-01T10:22:53;5.93;;;2.45;;
55368;SDS011;41247;49.736;8.752;2022-09-01T10:26:36;2.60;;;2.00;;
55368;SDS011;41247;49.736;8.752;2022-09-01T10:30:20;4.28;;;2.30;;
55368;SDS011;41247;49.736;8.752;2022-09-01T10:34:02;4.00;;;2.17;;
55368;SDS011;41247;49.736;8.752;2022-09-01T10:37:45;4.90;;;2.08;;
55368;SDS011;41247;49.736;8.752;2022-09-01T10:45:37;6.80;;;2.00;;
55368;SDS011;41247;49.736;8.752;2022-09-01T10:53:36;6.45;;;1.92;;
55368;SDS011;41247;49.736;8.752;2022-09-01T11:01:16;3.70;;;2.00;;
55368;SDS011;41247;49.736;8.752;2022-09-01T11:05:19;3.60;;;1.70;;
55368;SDS011;41247;49.736;8.752;2022-09-01T11:09:02;3.03;;;1.73;;
55368;SDS011;41247;49.736;8.752;2022-09-01T11:13:02;2.63;;;1.85;;
55368;SDS011;41247;49.736;8.752;2022-09-01T11:33:51;4.75;;;1.73;;
55368;SDS011;41247;49.736;8.752;2022-09-01T11:37:42;6.22;;;2.00;;
55368;SDS011;41247;49.736;8.752;2022-09-01T11:41:27;5.40;;;1.85;;
55368;SDS011;41247;49.736;8.752;2022-09-01T11:45:23;3.00;;;1.98;;
55368;SDS011;41247;49.736;8.752;2022-09-01T11:49:07;5.55;;;1.38;;
55368;SDS011;41247;49.736;8.752;2022-09-01T11:53:05;1.83;;;1.50;;
55368;SDS011;41247;49.736;8.752;2022-09-01T11:56:51;2.22;;;1.73;;
55368;SDS011;41247;49.736;8.752;2022-09-01T12:00:34;3.67;;;1.90;;
55368;SDS011;41247;49.736;8.752;2022-09-01T12:04:20;2.35;;;1.70;;
55368;SDS011;41247;49.736;8.752;2022-09-01T12:08:13;5.80;;;2.00;;
55368;SDS011;41247;49.736;8.752;2022-09-01T12:11:56;5.13;;;1.80;;
55368;SDS011;41247;49.736;8.752;2022-09-01T12:15:38;2.28;;;1.67;;
55368;SDS011;41247;49.736;8.752;2022-09-01T12:19:24;2.25;;;1.92;;
55368;SDS011;41247;49.736;8.752;2022-09-01T12:27:20;3.92;;;1.90;;
55368;SDS011;41247;49.736;8.752;2022-09-01T12:31:03;2.60;;;1.80;;
55368;SDS011;41247;49.736;8.752;2022-09-01T12:34:58;5.88;;;1.60;;
55368;SDS011;41247;49.736;8.752;2022-09-01T12:39:18;2.53;;;1.80;;
55368;SDS011;41247;49.736;8.752;2022-09-01T12:43:01;2.40;;;1.52;;
55368;SDS011;41247;49.736;8.752;2022-09-01T12:46:43;5.32;;;1.65;;
55368;SDS011;41247;49.736;8.752;2022-09-01T12:54:05;2.38;;;2.13;;
55368;SDS011;41247;49.736;8.752;2022-09-01T12:57:49;5.20;;;2.10;;
55368;SDS011;41247;49.736;8.752;2022-09-01T13:01:34;2.75;;;1.80;;
55368;SDS011;41247;49.736;8.752;2022-09-01T13:09:05;5.45;;;1.80;;
55368;SDS011;41247;49.736;8.752;2022-09-01T13:12:46;2.65;;;1.98;;
55368;SDS011;41247;49.736;8.752;2022-09-01T13:16:27;2.47;;;1.42;;
55368;SDS011;41247;49.736;8.752;2022-09-01T13:20:07;6.38;;;1.90;;
55368;SDS011;41247;49.736;8.752;2022-09-01T13:23:49;2.08;;;1.60;;
55368;SDS011;41247;49.736;8.752;2022-09-01T13:27:30;3.90;;;1.50;;
55368;SDS011;41247;49.736;8.752;2022-09-01T13:31:11;3.13;;;1.30;;
55368;SDS011;41247;49.736;8.752;2022-09-01T13:34:52;4.75;;;1.60;;
55368;SDS011;41247;49.736;8.752;2022-09-01T13:38:33;2.72;;;1.40;;
55368;SDS011;41247;49.736;8.752;2022-09-01T13:42:13;2.72;;;1.50;;
55368;SDS011;41247;49.736;8.752;2022-09-01T13:45:55;3.90;;;1.60;;
55368;SDS011;41247;49.736;8.752;2022-09-01T13:49:36;2.75;;;1.40;;
55368;SDS011;41247;49.736;8.752;2022-09-01T13:53:17;1.92;;;1.30;;
55368;SDS011;41247;49.736;8.752;2022-09-01T13:56:58;8.15;;;1.40;;
55368;SDS011;41247;49.736;8.752;2022-09-01T14:00:40;1.83;;;1.25;;
55368;SDS011;41247;49.736;8.752;2022-09-01T14:04:25;2.72;;;1.20;;
55368;SDS011;41247;49.736;8.752;2022-09-01T14:08:07;2.78;;;1.27;;
55368;SDS011;41247;49.736;8.752;2022-09-01T14:11:53;1.98;;;1.30;;
55368;SDS011;41247;49.736;8.752;2022-09-01T14:15:34;2.80;;;1.40;;
55368;SDS011;41247;49.736;8.752;2022-09-01T14:19:15;1.60;;;1.25;;
55368;SDS011;41247;49.736;8.752;2022-09-01T14:22:56;1.30;;;1.20;;
55368;SDS011;41247;49.736;8.752;2022-09-01T14:26:39;3.22;;;1.10;;
55368;SDS011;41247;49.736;8.752;2022-09-01T14:30:24;2.63;;;1.27;;
55368;SDS011;41247;49.736;8.752;2022-09-01T14:34:07;2.25;;;1.20;;
55368;SDS011;41247;49.736;8.752;2022-09-01T14:37:48;2.15;;;1.20;;
55368;SDS011;41247;49.736;8.752;2022-09-01T14:41:29;2.75;;;1.40;;
55368;SDS011;41247;49.736;8.752;2022-09-01T14:45:10;2.40;;;1.20;;
55368;SDS011;41247;49.736;8.752;2022-09-01T14:48:51;5.43;;;1.42;;
55368;SDS011;41247;49.736;8.752;2022-09-01T14:52:32;3.80;;;1.30;;
55368;SDS011;41247;49.736;8.752;2022-09-01T14:56:13;2.15;;;1.20;;
55368;SDS011;41247;49.736;8.752;2022-09-01T14:59:54;1.60;;;1.40;;
55368;SDS011;41247;49.736;8.752;2022-09-01T15:03:34;1.98;;;1.40;;
55368;SDS011;41247;49.736;8.752;2022-09-01T15:07:15;5.13;;;1.40;;
55368;SDS011;41247;49.736;8.752;2022-09-01T15:10:56;4.82;;;1.48;;
55368;SDS011;41247;49.736;8.752;2022-09-01T15:14:37;2.92;;;1.30;;
55368;SDS011;41247;49.736;8.752;2022-09-01T15:18:17;4.50;;;1.33;;
55368;SDS011;41247;49.736;8.752;2022-09-01T15:21:58;4.45;;;1.35;;
55368;SDS011;41247;49.736;8.752;2022-09-01T15:25:39;2.17;;;1.40;;
55368;SDS011;41247;49.736;8.752;2022-09-01T15:29:19;2.83;;;1.52;;
55368;SDS011;41247;49.736;8.752;2022-09-01T15:33:00;1.83;;;1.20;;
55368;SDS011;41247;49.736;8.752;2022-09-01T15:36:40;2.97;;;1.10;;
55368;SDS011;41247;49.736;8.752;2022-09-01T15:40:21;4.03;;;1.40;;
55368;SDS011;41247;49.736;8.752;2022-09-01T15:44:04;1.90;;;1.17;;
55368;SDS011;41247;49.736;8.752;2022-09-01T15:47:46;1.95;;;1.33;;
55368;SDS011;41247;49.736;8.752;2022-09-01T15:51:31;2.47;;;1.25;;
55368;SDS011;41247;49.736;8.752;2022-09-01T15:55:44;2.05;;;1.30;;
55368;SDS011;41247;49.736;8.752;2022-09-01T15:59:26;6.57;;;1.40;;
55368;SDS011;41247;49.736;8.752;2022-09-01T16:03:06;1.35;;;1.20;;
55368;SDS011;41247;49.736;8.752;2022-09-01T16:06:49;2.63;;;1.42;;
55368;SDS011;41247;49.736;8.752;2022-09-01T16:10:29;2.38;;;1.20;;
55368;SDS011;41247;49.736;8.752;2022-09-01T16:14:10;2.22;;;1.42;;
55368;SDS011;41247;49.736;8.752;2022-09-01T16:22:35;2.35;;;1.48;;
55368;SDS011;41247;49.736;8.752;2022-09-01T16:26:12;1.73;;;1.25;;
55368;SDS011;41247;49.736;8.752;2022-09-01T16:29:57;3.00;;;1.60;;
55368;SDS011;41247;49.736;8.752;2022-09-01T16:33:54;1.50;;;1.17;;
55368;SDS011;41247;49.736;8.752;2022-09-01T16:45:31;3.45;;;1.65;;
55368;SDS011;41247;49.736;8.752;2022-09-01T16:57:42;5.17;;;1.47;;
55368;SDS011;41247;49.736;8.752;2022-09-01T17:06:30;2.13;;;1.67;;
55368;SDS011;41247;49.736;8.752;2022-09-01T17:10:25;4.95;;;1.58;;
55368;SDS011;41247;49.736;8.752;2022-09-01T17:14:12;3.60;;;1.55;;
55368;SDS011;41247;49.736;8.752;2022-09-01T17:22:20;4.38;;;1.88;;
55368;SDS011;41247;49.736;8.752;2022-09-01T17:26:03;2.45;;;1.60;;
55368;SDS011;41247;49.736;8.752;2022-09-01T17:29:54;2.72;;;1.95;;
55368;SDS011;41247;49.736;8.752;2022-09-01T17:46:15;3.00;;;1.90;;
55368;SDS011;41247;49.736;8.752;2022-09-01T17:50:46;2.10;;;1.83;;
55368;SDS011;41247;49.736;8.752;2022-09-01T17:55:06;5.63;;;2.10;;
55368;SDS011;41247;49.736;8.752;2022-09-01T18:03:20;6.78;;;2.30;;
55368;SDS011;41247;49.736;8.752;2022-09-01T18:15:30;5.47;;;1.95;;
55368;SDS011;41247;49.736;8.752;2022-09-01T18:19:34;5.18;;;2.78;;
55368;SDS011;41247;49.736;8.752;2022-09-01T18:23:19;3.58;;;2.35;;
55368;SDS011;41247;49.736;8.752;2022-09-01T18:27:00;4.50;;;2.60;;
55368;SDS011;41247;49.736;8.752;2022-09-01T18:30:54;5.32;;;2.42;;
55368;SDS011;41247;49.736;8.752;2022-09-01T18:34:49;2.90;;;2.28;;
55368;SDS011;41247;49.736;8.752;2022-09-01T18:38:55;2.60;;;2.40;;
55368;SDS011;41247;49.736;8.752;2022-09-01T18:55:00;3.47;;;2.70;;
55368;SDS011;41247;49.736;8.752;2022-09-01T19:03:14;5.50;;;2.60;;
55368;SDS011;41247;49.736;8.752;2022-09-01T19:15:18;3.30;;;2.90;;
55368;SDS011;41247;49.736;8.752;2022-09-01T19:19:27;5.30;;;2.95;;
55368;SDS011;41247;49.736;8.752;2022-09-01T19:23:22;3.95;;;2.75;;
55368;SDS011;41247;49.736;8.752;2022-09-01T19:27:23;2.95;;;2.58;;
55368;SDS011;41247;49.736;8.752;2022-09-01T19:31:26;4.88;;;3.00;;
55368;SDS011;41247;49.736;8.752;2022-09-01T19:35:14;4.93;;;3.13;;
55368;SDS011;41247;49.736;8.752;2022-09-01T19:38:56;3.30;;;3.00;;
55368;SDS011;41247;49.736;8.752;2022-09-01T19:42:46;3.75;;;2.97;;
55368;SDS011;41247;49.736;8.752;2022-09-01T19:46:46;3.38;;;3.08;;
55368;SDS011;41247;49.736;8.752;2022-09-01T19:50:45;5.78;;;2.90;;
55368;SDS011;41247;49.736;8.752;2022-09-01T19:58:45;4.35;;;3.42;;
55368;SDS011;41247;49.736;8.752;2022-09-01T20:03:04;4.90;;;3.10;;
55368;SDS011;41247;49.736;8.752;2022-09-01T20:06:49;3.50;;;3.17;;
55368;SDS011;41247;49.736;8.752;2022-09-01T20:17:59;3.72;;;3.25;;
55368;SDS011;41247;49.736;8.752;2022-09-01T20:21:45;3.33;;;2.90;;
55368;SDS011;41247;49.736;8.752;2022-09-01T20:25:29;3.40;;;3.10;;
55368;SDS011;41247;49.736;8.752;2022-09-01T20:33:32;7.32;;;3.15;;
55368;SDS011;41247;49.736;8.752;2022-09-01T20:37:36;3.58;;;3.00;;
55368;SDS011;41247;49.736;8.752;2022-09-01T20:41:36;4.93;;;2.80;;
55368;SDS011;41247;49.736;8.752;2022-09-01T20:45:41;4.07;;;3.15;;
55368;SDS011;41247;49.736;8.752;2022-09-01T20:49:22;4.47;;;3.20;;
55368;SDS011;41247;49.736;8.752;2022-09-01T20:53:08;4.30;;;3.45;;
55368;SDS011;41247;49.736;8.752;2022-09-01T20:57:12;6.35;;;3.10;;
55368;SDS011;41247;49.736;8.752;2022-09-01T21:01:04;3.60;;;3.20;;
55368;SDS011;41247;49.736;8.752;2022-09-01T21:13:14;7.40;;;3.60;;
55368;SDS011;41247;49.736;8.752;2022-09-01T21:25:42;6.22;;;3.67;;
55368;SDS011;41247;49.736;8.752;2022-09-01T21:33:31;8.55;;;4.05;;
55368;SDS011;41247;49.736;8.752;2022-09-01T21:37:12;4.38;;;3.97;;
55368;SDS011;41247;49.736;8.752;2022-09-01T21:40:53;5.50;;;3.58;;
55368;SDS011;41247;49.736;8.752;2022-09-01T21:44:35;6.00;;;3.70;;
55368;SDS011;41247;49.736;8.752;2022-09-01T21:48:16;8.88;;;3.70;;
55368;SDS011;41247;49.736;8.752;2022-09-01T21:51:57;4.03;;;3.47;;
55368;SDS011;41247;49.736;8.752;2022-09-01T21:55:38;4.00;;;3.60;;
55368;SDS011;41247;49.736;8.752;2022-09-01T21:59:19;4.03;;;3.63;;
55368;SDS011;41247;49.736;8.752;2022-09-01T22:03:00;8.70;;;3.78;;
55368;SDS011;41247;49.736;8.752;2022-09-01T22:06:41;10.32;;;4.22;;
55368;SDS011;41247;49.736;8.752;2022-09-01T22:10:22;6.20;;;3.83;;
55368;SDS011;41247;49.736;8.752;2022-09-01T22:14:05;5.33;;;3.70;;
55368;SDS011;41247;49.736;8.752;2022-09-01T22:17:46;7.90;;;4.05;;
55368;SDS011;41247;49.736;8.752;2022-09-01T22:21:27;4.80;;;3.85;;
55368;SDS011;41247;49.736;8.752;2022-09-01T22:25:09;7.47;;;3.75;;
55368;SDS011;41247;49.736;8.752;2022-09-01T22:28:53;7.03;;;4.50;;
55368;SDS011;41247;49.736;8.752;2022-09-01T22:32:36;5.13;;;4.03;;
55368;SDS011;41247;49.736;8.752;2022-09-01T22:36:20;4.05;;;3.63;;
55368;SDS011;41247;49.736;8.752;2022-09-01T22:40:05;6.82;;;3.80;;
55368;SDS011;41247;49.736;8.752;2022-09-01T22:43:47;5.25;;;4.13;;
55368;SDS011;41247;49.736;8.752;2022-09-01T22:47:28;6.25;;;3.67;;
55368;SDS011;41247;49.736;8.752;2022-09-01T22:51:09;5.78;;;3.67;;
55368;SDS011;41247;49.736;8.752;2022-09-01T22:54:51;3.85;;;3.45;;
55368;SDS011;41247;49.736;8.752;2022-09-01T22:58:32;4.43;;;3.88;;
55368;SDS011;41247;49.736;8.752;2022-09-01T23:02:12;6.55;;;3.60;;
55368;SDS011;41247;49.736;8.752;2022-09-01T23:06:00;10.60;;;3.33;;
55368;SDS011;41247;49.736;8.752;2022-09-01T23:09:47;4.68;;;3.28;;
55368;SDS011;41247;49.736;8.752;2022-09-01T23:13:28;5.28;;;3.08;;
55368;SDS011;41247;49.736;8.752;2022-09-01T23:17:08;3.17;;;2.88;;
55368;SDS011;41247;49.736;8.752;2022-09-01T23:20:49;5.22;;;3.67;;
55368;SDS011;41247;49.736;8.752;2022-09-01T23:24:30;4.55;;;2.90;;
55368;SDS011;41247;49.736;8.752;2022-09-01T23:28:12;5.45;;;3.50;;
55368;SDS011;41247;49.736;8.752;2022-09-01T23:31:55;4.80;;;3.60;;
55368;SDS011;41247;49.736;8.752;2022-09-01T23:35:35;3.58;;;3.17;;
55368;SDS011;41247;49.736;8.752;2022-09-01T23:39:20;7.80;;;3.38;;
55368;SDS011;41247;49.736;8.752;2022-09-01T23:43:01;3.78;;;3.15;;
55368;SDS011;41247;49.736;8.752;2022-09-01T23:46:42;6.57;;;2.92;;
55368;SDS011;41247;49.736;8.752;2022-09-01T23:50:24;6.07;;;3.00;;
55368;SDS011;41247;49.736;8.752;2022-09-01T23:54:05;3.80;;;3.38;;
55368;SDS011;41247;49.736;8.752;2022-09-01T23:57:46;2.80;;;2.53;;
